sensor_id;sensor_type;location;lat;lon;timestamp;temperature;humidity
67188;DHT22;54117;53.532;49.426;2022-09-21T00:00:39;16.60;96.70
67188;DHT22;54117;53.532;49.426;2022-09-21T00:03:06;16.50;96.70
67188;DHT22;54117;53.532;49.426;2022-09-21T00:05:33;16.40;96.80
67188;DHT22;54117;53.532;49.426;2022-09-21T00:08:04;16.30;97.00
67188;DHT22;54117;53.532;49.426;2022-09-21T00:10:31;16.20;97.20
67188;DHT22;54117;53.532;49.426;2022-09-21T00:12:58;16.20;97.50
67188;DHT22;54117;53.532;49.426;2022-09-21T00:15:25;16.10;97.70
67188;DHT22;54117;53.532;49.426;2022-09-21T00:17:53;16.20;97.80
67188;DHT22;54117;53.532;49.426;2022-09-21T00:20:19;16.20;97.80
67188;DHT22;54117;53.532;49.426;2022-09-21T00:22:47;16.20;97.90
67188;DHT22;54117;53.532;49.426;2022-09-21T00:25:14;16.20;97.90
67188;DHT22;54117;53.532;49.426;2022-09-21T00:27:40;16.20;97.80
67188;DHT22;54117;53.532;49.426;2022-09-21T00:30:07;16.20;97.80
67188;DHT22;54117;53.532;49.426;2022-09-21T00:32:35;16.20;97.80
67188;DHT22;54117;53.532;49.426;2022-09-21T00:35:04;16.20;97.90
67188;DHT22;54117;53.532;49.426;2022-09-21T00:37:31;16.20;98.10
67188;DHT22;54117;53.532;49.426;2022-09-21T00:39:58;16.20;98.20
67188;DHT22;54117;53.532;49.426;2022-09-21T00:42:27;16.20;98.30
67188;DHT22;54117;53.532;49.426;2022-09-21T00:44:54;16.30;98.30
67188;DHT22;54117;53.532;49.426;2022-09-21T00:47:30;16.30;98.20
67188;DHT22;54117;53.532;49.426;2022-09-21T00:50:00;16.30;98.10
67188;DHT22;54117;53.532;49.426;2022-09-21T00:52:31;16.30;97.80
67188;DHT22;54117;53.532;49.426;2022-09-21T00:55:04;16.30;97.70
67188;DHT22;54117;53.532;49.426;2022-09-21T00:57:31;16.20;97.60
67188;DHT22;54117;53.532;49.426;2022-09-21T01:00:01;16.00;97.60
67188;DHT22;54117;53.532;49.426;2022-09-21T01:02:29;15.90;97.70
67188;DHT22;54117;53.532;49.426;2022-09-21T01:04:55;15.80;97.80
67188;DHT22;54117;53.532;49.426;2022-09-21T01:07:25;15.80;97.90
67188;DHT22;54117;53.532;49.426;2022-09-21T01:09:59;15.70;98.00
67188;DHT22;54117;53.532;49.426;2022-09-21T01:15:57;15.60;98.20
67188;DHT22;54117;53.532;49.426;2022-09-21T01:18:50;15.50;98.30
67188;DHT22;54117;53.532;49.426;2022-09-21T01:24:18;15.50;98.50
67188;DHT22;54117;53.532;49.426;2022-09-21T01:26:57;15.40;98.30
67188;DHT22;54117;53.532;49.426;2022-09-21T01:32:15;15.30;98.40
67188;DHT22;54117;53.532;49.426;2022-09-21T01:35:19;15.30;98.60
67188;DHT22;54117;53.532;49.426;2022-09-21T01:37:48;15.10;98.50
67188;DHT22;54117;53.532;49.426;2022-09-21T01:40:36;15.10;98.50
67188;DHT22;54117;53.532;49.426;2022-09-21T01:43:04;15.10;98.70
67188;DHT22;54117;53.532;49.426;2022-09-21T01:45:35;15.10;98.80
67188;DHT22;54117;53.532;49.426;2022-09-21T01:48:03;15.10;98.90
67188;DHT22;54117;53.532;49.426;2022-09-21T01:50:40;15.10;99.00
67188;DHT22;54117;53.532;49.426;2022-09-21T01:53:12;15.10;99.10
67188;DHT22;54117;53.532;49.426;2022-09-21T01:55:48;15.10;99.20
67188;DHT22;54117;53.532;49.426;2022-09-21T02:01:02;15.30;99.00
67188;DHT22;54117;53.532;49.426;2022-09-21T02:03:36;15.30;98.90
67188;DHT22;54117;53.532;49.426;2022-09-21T02:06:05;15.30;98.90
67188;DHT22;54117;53.532;49.426;2022-09-21T02:08:32;15.30;99.00
67188;DHT22;54117;53.532;49.426;2022-09-21T02:11:02;15.30;99.00
67188;DHT22;54117;53.532;49.426;2022-09-21T02:13:32;15.30;99.00
67188;DHT22;54117;53.532;49.426;2022-09-21T02:16:24;15.30;99.00
67188;DHT22;54117;53.532;49.426;2022-09-21T02:19:13;15.30;98.90
67188;DHT22;54117;53.532;49.426;2022-09-21T02:21:55;15.30;98.90
67188;DHT22;54117;53.532;49.426;2022-09-21T02:24:43;15.30;98.90
67188;DHT22;54117;53.532;49.426;2022-09-21T02:27:19;15.30;98.90
67188;DHT22;54117;53.532;49.426;2022-09-21T02:38:26;15.20;98.90
67188;DHT22;54117;53.532;49.426;2022-09-21T02:43:59;15.10;98.90
67188;DHT22;54117;53.532;49.426;2022-09-21T02:46:40;15.10;98.90
67188;DHT22;54117;53.532;49.426;2022-09-21T02:49:33;15.10;99.20
67188;DHT22;54117;53.532;49.426;2022-09-21T02:52:07;15.20;99.30
67188;DHT22;54117;53.532;49.426;2022-09-21T02:54:35;15.20;99.20
67188;DHT22;54117;53.532;49.426;2022-09-21T02:57:03;15.40;99.10
67188;DHT22;54117;53.532;49.426;2022-09-21T02:59:30;15.40;99.00
67188;DHT22;54117;53.532;49.426;2022-09-21T03:01:57;15.50;98.90
67188;DHT22;54117;53.532;49.426;2022-09-21T03:04:24;15.50;98.90
67188;DHT22;54117;53.532;49.426;2022-09-21T03:06:52;15.50;98.80
